sensor_id;sensor_type;location;lat;lon;timestamp;temperature;humidity
26990;DHT22;14537;47.788;11.858;2022-12-29T00:01:37;-0.80;99.90
26990;DHT22;14537;47.788;11.858;2022-12-29T00:04:04;-0.70;99.90
26990;DHT22;14537;47.788;11.858;2022-12-29T00:06:30;-0.70;99.90
26990;DHT22;14537;47.788;11.858;2022-12-29T00:08:56;-0.70;99.90
26990;DHT22;14537;47.788;11.858;2022-12-29T00:11:23;-0.70;99.90
26990;DHT22;14537;47.788;11.858;2022-12-29T00:13:50;-0.80;99.90
26990;DHT22;14537;47.788;11.858;2022-12-29T00:16:35;-0.80;99.90
26990;DHT22;14537;47.788;11.858;2022-12-29T00:19:01;-0.60;99.90
26990;DHT22;14537;47.788;11.858;2022-12-29T00:21:27;-0.60;99.90
26990;DHT22;14537;47.788;11.858;2022-12-29T00:29:50;-0.70;99.90
26990;DHT22;14537;47.788;11.858;2022-12-29T00:32:35;-1.00;99.90
26990;DHT22;14537;47.788;11.858;2022-12-29T00:37:49;-1.00;99.90
26990;DHT22;14537;47.788;11.858;2022-12-29T00:40:33;-1.00;99.90
26990;DHT22;14537;47.788;11.858;2022-12-29T00:43:34;-0.90;99.90
26990;DHT22;14537;47.788;11.858;2022-12-29T00:46:19;-0.90;99.90
26990;DHT22;14537;47.788;11.858;2022-12-29T00:48:44;-0.90;99.90
26990;DHT22;14537;47.788;11.858;2022-12-29T00:51:28;-0.90;99.90
26990;DHT22;14537;47.788;11.858;2022-12-29T00:53:54;-1.10;99.90
26990;DHT22;14537;47.788;11.858;2022-12-29T00:56:20;-1.10;99.90
26990;DHT22;14537;47.788;11.858;2022-12-29T00:58:45;-1.10;99.90
26990;DHT22;14537;47.788;11.858;2022-12-29T01:01:11;-1.00;99.90
26990;DHT22;14537;47.788;11.858;2022-12-29T01:03:37;-0.90;99.90
26990;DHT22;14537;47.788;11.858;2022-12-29T01:06:05;-0.70;99.90
26990;DHT22;14537;47.788;11.858;2022-12-29T01:08:32;-0.60;99.90
26990;DHT22;14537;47.788;11.858;2022-12-29T01:11:03;-0.30;99.90
26990;DHT22;14537;47.788;11.858;2022-12-29T01:13:29;-0.30;99.90
26990;DHT22;14537;47.788;11.858;2022-12-29T01:15:55;-0.30;99.90
26990;DHT22;14537;47.788;11.858;2022-12-29T01:18:21;-0.30;99.90
26990;DHT22;14537;47.788;11.858;2022-12-29T01:20:47;-0.20;99.90
26990;DHT22;14537;47.788;11.858;2022-12-29T01:23:13;-0.10;99.90
26990;DHT22;14537;47.788;11.858;2022-12-29T01:25:38;-0.10;99.90
26990;DHT22;14537;47.788;11.858;2022-12-29T01:28:05;0.00;99.90
26990;DHT22;14537;47.788;11.858;2022-12-29T01:30:30;0.00;99.90
26990;DHT22;14537;47.788;11.858;2022-12-29T01:32:57;0.00;99.90
26990;DHT22;14537;47.788;11.858;2022-12-29T01:35:23;0.00;99.90
26990;DHT22;14537;47.788;11.858;2022-12-29T01:37:48;-0.10;99.90
26990;DHT22;14537;47.788;11.858;2022-12-29T01:40:14;-0.10;99.90
26990;DHT22;14537;47.788;11.858;2022-12-29T01:42:39;-0.10;99.90
26990;DHT22;14537;47.788;11.858;2022-12-29T01:45:11;-0.20;99.90
26990;DHT22;14537;47.788;11.858;2022-12-29T01:47:41;-0.20;99.90
26990;DHT22;14537;47.788;11.858;2022-12-29T01:50:44;-0.20;99.90
26990;DHT22;14537;47.788;11.858;2022-12-29T01:53:23;-0.10;99.90
26990;DHT22;14537;47.788;11.858;2022-12-29T01:55:55;-0.30;99.90
26990;DHT22;14537;47.788;11.858;2022-12-29T01:58:24;-0.30;99.90
26990;DHT22;14537;47.788;11.858;2022-12-29T02:00:52;-0.20;99.90
26990;DHT22;14537;47.788;11.858;2022-12-29T02:03:19;-0.20;99.90
26990;DHT22;14537;47.788;11.858;2022-12-29T02:08:35;-0.10;99.90
26990;DHT22;14537;47.788;11.858;2022-12-29T02:11:02;-0.10;99.90
26990;DHT22;14537;47.788;11.858;2022-12-29T02:13:28;-0.20;99.90
26990;DHT22;14537;47.788;11.858;2022-12-29T02:29:27;-0.60;99.90
26990;DHT22;14537;47.788;11.858;2022-12-29T02:32:03;-0.60;99.90
26990;DHT22;14537;47.788;11.858;2022-12-29T02:35:01;-0.60;99.90
26990;DHT22;14537;47.788;11.858;2022-12-29T02:37:41;-0.50;99.90
26990;DHT22;14537;47.788;11.858;2022-12-29T02:40:25;-0.60;99.90
26990;DHT22;14537;47.788;11.858;2022-12-29T02:45:52;-0.70;99.90
26990;DHT22;14537;47.788;11.858;2022-12-29T02:48:25;-0.70;99.90
26990;DHT22;14537;47.788;11.858;2022-12-29T02:51:02;-0.70;99.90
26990;DHT22;14537;47.788;11.858;2022-12-29T02:53:30;-0.60;99.90
26990;DHT22;14537;47.788;11.858;2022-12-29T02:56:15;-0.70;99.90
26990;DHT22;14537;47.788;11.858;2022-12-29T02:58:41;-0.70;99.90
26990;DHT22;14537;47.788;11.858;2022-12-29T03:10:02;-0.70;99.90
26990;DHT22;14537;47.788;11.858;2022-12-29T03:12:36;-0.60;99.90
26990;DHT22;14537;47.788;11.858;2022-12-29T03:15:32;-0.50;99.90
26990;DHT22;14537;47.788;11.858;2022-12-29T03:18:25;-0.50;99.90
26990;DHT22;14537;47.788;11.858;2022-12-29T03:21:17;-0.50;99.90
26990;DHT22;14537;47.788;11.858;2022-12-29T03:23:46;-0.50;99.90
26990;DHT22;14537;47.788;11.858;2022-12-29T03:26:15;-0.50;99.90
26990;DHT22;14537;47.788;11.858;2022-12-29T03:28:49;-0.50;99.90
26990;DHT22;14537;47.788;11.858;2022-12-29T03:31:16;-0.40;99.90
26990;DHT22;14537;47.788;11.858;2022-12-29T03:33:43;-0.40;99.90
26990;DHT22;14537;47.788;11.858;2022-12-29T03:36:15;-0.40;99.90
26990;DHT22;14537;47.788;11.858;2022-12-29T03:39:25;-0.50;99.90
26990;DHT22;14537;47.788;11.858;2022-12-29T03:41:44;-0.60;99.90
26990;DHT22;14537;47.788;11.858;2022-12-29T03:44:12;-0.50;99.90
26990;DHT22;14537;47.788;11.858;2022-12-29T03:46:37;-0.40;99.90
26990;DHT22;14537;47.788;11.858;2022-12-29T03:49:03;-0.40;99.90
26990;DHT22;14537;47.788;11.858;2022-12-29T03:51:29;-0.40;99.90
26990;DHT22;14537;47.788;11.858;2022-12-29T03:53:55;-0.30;99.90
26990;DHT22;14537;47.788;11.858;2022-12-29T03:56:20;-0.40;99.90
26990;DHT22;14537;47.788;11.858;2022-12-29T03:58:46;-0.40;99.90
26990;DHT22;14537;47.788;11.858;2022-12-29T04:01:11;-0.40;99.90
26990;DHT22;14537;47.788;11.858;2022-12-29T04:03:37;-0.40;99.90
26990;DHT22;14537;47.788;11.858;2022-12-29T04:06:03;-0.40;99.90
26990;DHT22;14537;47.788;11.858;2022-12-29T04:08:29;-0.40;99.90
26990;DHT22;14537;47.788;11.858;2022-12-29T04:10:55;-0.40;99.90
26990;DHT22;14537;47.788;11.858;2022-12-29T04:13:20;-0.40;99.90
26990;DHT22;14537;47.788;11.858;2022-12-29T04:15:46;-0.40;99.90
26990;DHT22;14537;47.788;11.858;2022-12-29T04:18:12;-0.30;99.90
26990;DHT22;14537;47.788;11.858;2022-12-29T04:20:38;-0.30;99.90
26990;DHT22;14537;47.788;11.858;2022-12-29T04:23:22;-0.30;99.90
26990;DHT22;14537;47.788;11.858;2022-12-29T04:25:48;-0.50;99.90
26990;DHT22;14537;47.788;11.858;2022-12-29T04:28:15;-0.40;99.90
26990;DHT22;14537;47.788;11.858;2022-12-29T04:30:41;-0.20;99.90
26990;DHT22;14537;47.788;11.858;2022-12-29T04:33:07;0.00;99.90
26990;DHT22;14537;47.788;11.858;2022-12-29T04:35:33;-0.10;99.90
26990;DHT22;14537;47.788;11.858;2022-12-29T04:37:58;-0.10;99.90
26990;DHT22;14537;47.788;11.858;2022-12-29T04:40:24;0.00;99.90
26990;DHT22;14537;47.788;11.858;2022-12-29T04:42:50;0.00;99.90
26990;DHT22;14537;47.788;11.858;2022-12-29T04:45:16;0.10;99.90
26990;DHT22;14537;47.788;11.858;2022-12-29T04:47:41;0.10;99.90
26990;DHT22;14537;47.788;11.858;2022-12-29T04:50:07;0.10;99.90
26990;DHT22;14537;47.788;11.858;2022-12-29T04:52:33;0.10;99.90
26990;DHT22;14537;47.788;11.858;2022-12-29T04:54:59;0.10;99.90
26990;DHT22;14537;47.788;11.858;2022-12-29T04:57:24;0.10;99.90
26990;DHT22;14537;47.788;11.858;2022-12-29T04:59:50;0.20;99.90
26990;DHT22;14537;47.788;11.858;2022-12-29T05:02:16;0.20;99.90
26990;DHT22;14537;47.788;11.858;2022-12-29T05:04:42;0.20;99.90
26990;DHT22;14537;47.788;11.858;2022-12-29T05:07:08;0.30;99.90
26990;DHT22;14537;47.788;11.858;2022-12-29T05:09:33;0.40;99.90
26990;DHT22;14537;47.788;11.858;2022-12-29T05:11:59;0.50;99.90
26990;DHT22;14537;47.788;11.858;2022-12-29T05:14:25;0.50;99.90
26990;DHT22;14537;47.788;11.858;2022-12-29T05:16:50;0.50;99.90
26990;DHT22;14537;47.788;11.858;2022-12-29T05:19:16;0.60;99.90
26990;DHT22;14537;47.788;11.858;2022-12-29T05:21:42;0.60;99.90
26990;DHT22;14537;47.788;11.858;2022-12-29T05:24:08;0.60;99.90
26990;DHT22;14537;47.788;11.858;2022-12-29T05:26:33;0.60;99.90
26990;DHT22;14537;47.788;11.858;2022-12-29T05:28:59;1.00;99.90
26990;DHT22;14537;47.788;11.858;2022-12-29T05:31:25;1.10;99.90
26990;DHT22;14537;47.788;11.858;2022-12-29T05:33:51;1.10;99.90
26990;DHT22;14537;47.788;11.858;2022-12-29T05:36:17;1.00;99.90
26990;DHT22;14537;47.788;11.858;2022-12-29T05:38:43;0.90;99.90
26990;DHT22;14537;47.788;11.858;2022-12-29T05:41:08;0.90;99.90
26990;DHT22;14537;47.788;11.858;2022-12-29T05:43:34;0.90;99.90
26990;DHT22;14537;47.788;11.858;2022-12-29T05:46:00;0.90;99.90
26990;DHT22;14537;47.788;11.858;2022-12-29T05:48:25;1.20;99.90
26990;DHT22;14537;47.788;11.858;2022-12-29T05:50:51;1.30;99.90
26990;DHT22;14537;47.788;11.858;2022-12-29T05:53:17;1.30;99.90
26990;DHT22;14537;47.788;11.858;2022-12-29T05:55:44;1.30;99.90
26990;DHT22;14537;47.788;11.858;2022-12-29T05:58:10;1.30;99.90
26990;DHT22;14537;47.788;11.858;2022-12-29T06:00:35;1.30;99.90
26990;DHT22;14537;47.788;11.858;2022-12-29T06:03:01;1.30;99.90
26990;DHT22;14537;47.788;11.858;2022-12-29T06:05:26;1.40;99.90
26990;DHT22;14537;47.788;11.858;2022-12-29T06:07:52;1.40;99.90
26990;DHT22;14537;47.788;11.858;2022-12-29T06:10:18;1.30;99.90
26990;DHT22;14537;47.788;11.858;2022-12-29T06:12:43;1.20;99.90
26990;DHT22;14537;47.788;11.858;2022-12-29T06:15:09;1.20;99.90
26990;DHT22;14537;47.788;11.858;2022-12-29T06:17:35;1.10;99.90
26990;DHT22;14537;47.788;11.858;2022-12-29T06:20:02;1.10;99.90
26990;DHT22;14537;47.788;11.858;2022-12-29T06:22:28;1.00;99.90
26990;DHT22;14537;47.788;11.858;2022-12-29T06:24:53;1.00;99.90
26990;DHT22;14537;47.788;11.858;2022-12-29T06:27:19;0.90;99.90
26990;DHT22;14537;47.788;11.858;2022-12-29T06:29:45;1.00;99.90
26990;DHT22;14537;47.788;11.858;2022-12-29T06:32:11;1.00;99.90
26990;DHT22;14537;47.788;11.858;2022-12-29T06:34:37;0.90;99.90
26990;DHT22;14537;47.788;11.858;2022-12-29T06:37:02;1.00;99.90
26990;DHT22;14537;47.788;11.858;2022-12-29T06:39:28;0.90;99.90
26990;DHT22;14537;47.788;11.858;2022-12-29T06:41:54;1.00;99.90
26990;DHT22;14537;47.788;11.858;2022-12-29T06:44:21;0.90;99.90
26990;DHT22;14537;47.788;11.858;2022-12-29T06:46:47;0.90;99.90
26990;DHT22;14537;47.788;11.858;2022-12-29T06:49:13;1.00;99.90
26990;DHT22;14537;47.788;11.858;2022-12-29T06:51:39;1.10;99.90
26990;DHT22;14537;47.788;11.858;2022-12-29T06:54:05;1.10;99.90
26990;DHT22;14537;47.788;11.858;2022-12-29T06:56:31;1.10;99.90
26990;DHT22;14537;47.788;11.858;2022-12-29T06:58:56;1.10;99.90
26990;DHT22;14537;47.788;11.858;2022-12-29T07:01:22;1.10;99.90
26990;DHT22;14537;47.788;11.858;2022-12-29T07:03:48;1.20;99.90
26990;DHT22;14537;47.788;11.858;2022-12-29T07:06:13;1.30;99.90
26990;DHT22;14537;47.788;11.858;2022-12-29T07:08:39;1.40;99.90
26990;DHT22;14537;47.788;11.858;2022-12-29T07:11:05;1.50;99.90
26990;DHT22;14537;47.788;11.858;2022-12-29T07:13:31;1.50;99.90
26990;DHT22;14537;47.788;11.858;2022-12-29T07:15:56;1.40;99.90
26990;DHT22;14537;47.788;11.858;2022-12-29T07:18:22;1.50;99.90
26990;DHT22;14537;47.788;11.858;2022-12-29T07:20:47;1.50;99.90
26990;DHT22;14537;47.788;11.858;2022-12-29T07:23:13;1.50;99.90
26990;DHT22;14537;47.788;11.858;2022-12-29T07:25:39;1.60;99.90
26990;DHT22;14537;47.788;11.858;2022-12-29T07:28:06;1.50;99.90
26990;DHT22;14537;47.788;11.858;2022-12-29T07:30:32;1.50;99.90
26990;DHT22;14537;47.788;11.858;2022-12-29T07:32:58;1.50;99.90
26990;DHT22;14537;47.788;11.858;2022-12-29T07:35:23;1.50;99.90
26990;DHT22;14537;47.788;11.858;2022-12-29T07:37:49;1.50;99.90
26990;DHT22;14537;47.788;11.858;2022-12-29T07:40:15;1.60;99.90
26990;DHT22;14537;47.788;11.858;2022-12-29T07:42:41;1.70;99.90
26990;DHT22;14537;47.788;11.858;2022-12-29T07:45:07;1.70;99.90
26990;DHT22;14537;47.788;11.858;2022-12-29T07:47:34;1.70;99.90
26990;DHT22;14537;47.788;11.858;2022-12-29T07:50:00;1.80;99.90
26990;DHT22;14537;47.788;11.858;2022-12-29T07:52:25;1.80;99.90
26990;DHT22;14537;47.788;11.858;2022-12-29T07:54:51;1.90;99.90
26990;DHT22;14537;47.788;11.858;2022-12-29T07:57:16;2.00;99.90
26990;DHT22;14537;47.788;11.858;2022-12-29T07:59:42;2.00;99.90
26990;DHT22;14537;47.788;11.858;2022-12-29T08:02:10;2.00;99.90
26990;DHT22;14537;47.788;11.858;2022-12-29T08:04:36;2.00;99.90
26990;DHT22;14537;47.788;11.858;2022-12-29T08:07:02;2.00;99.90
26990;DHT22;14537;47.788;11.858;2022-12-29T08:09:28;2.10;99.90
26990;DHT22;14537;47.788;11.858;2022-12-29T08:11:54;2.10;99.90
26990;DHT22;14537;47.788;11.858;2022-12-29T08:14:20;2.20;99.90
26990;DHT22;14537;47.788;11.858;2022-12-29T08:16:46;2.20;99.90
26990;DHT22;14537;47.788;11.858;2022-12-29T08:19:12;2.10;99.90
26990;DHT22;14537;47.788;11.858;2022-12-29T08:21:38;2.00;99.90
26990;DHT22;14537;47.788;11.858;2022-12-29T08:24:03;2.00;99.90
26990;DHT22;14537;47.788;11.858;2022-12-29T08:26:29;2.00;99.90
26990;DHT22;14537;47.788;11.858;2022-12-29T08:28:55;2.10;99.90
26990;DHT22;14537;47.788;11.858;2022-12-29T08:31:22;2.10;99.90
26990;DHT22;14537;47.788;11.858;2022-12-29T08:33:48;2.00;99.90
26990;DHT22;14537;47.788;11.858;2022-12-29T08:36:14;2.00;99.90
26990;DHT22;14537;47.788;11.858;2022-12-29T08:38:39;2.00;99.90
26990;DHT22;14537;47.788;11.858;2022-12-29T08:41:05;2.10;99.90
26990;DHT22;14537;47.788;11.858;2022-12-29T08:43:31;2.20;99.90
26990;DHT22;14537;47.788;11.858;2022-12-29T08:45:59;2.20;99.90
26990;DHT22;14537;47.788;11.858;2022-12-29T08:48:26;2.20;99.90
26990;DHT22;14537;47.788;11.858;2022-12-29T08:50:51;2.40;99.90
26990;DHT22;14537;47.788;11.858;2022-12-29T08:53:18;2.40;99.90
26990;DHT22;14537;47.788;11.858;2022-12-29T08:55:51;2.30;99.90
26990;DHT22;14537;47.788;11.858;2022-12-29T08:58:19;2.30;99.90
26990;DHT22;14537;47.788;11.858;2022-12-29T09:00:45;2.40;99.90
26990;DHT22;14537;47.788;11.858;2022-12-29T09:03:10;2.40;99.90
26990;DHT22;14537;47.788;11.858;2022-12-29T09:05:36;2.50;99.90
26990;DHT22;14537;47.788;11.858;2022-12-29T09:08:02;2.50;99.90
26990;DHT22;14537;47.788;11.858;2022-12-29T09:10:28;2.50;99.90
26990;DHT22;14537;47.788;11.858;2022-12-29T09:12:53;2.60;99.90
26990;DHT22;14537;47.788;11.858;2022-12-29T09:15:19;2.70;99.90
26990;DHT22;14537;47.788;11.858;2022-12-29T09:17:45;2.70;99.90
26990;DHT22;14537;47.788;11.858;2022-12-29T09:20:13;2.70;99.90
26990;DHT22;14537;47.788;11.858;2022-12-29T09:22:40;2.70;99.90
26990;DHT22;14537;47.788;11.858;2022-12-29T09:25:05;2.70;99.90
26990;DHT22;14537;47.788;11.858;2022-12-29T09:27:31;2.70;99.90
26990;DHT22;14537;47.788;11.858;2022-12-29T09:29:57;2.70;99.90
26990;DHT22;14537;47.788;11.858;2022-12-29T09:32:23;2.70;99.90
26990;DHT22;14537;47.788;11.858;2022-12-29T09:34:48;2.80;99.90
26990;DHT22;14537;47.788;11.858;2022-12-29T09:37:14;2.80;99.90
26990;DHT22;14537;47.788;11.858;2022-12-29T09:39:39;2.90;99.90
26990;DHT22;14537;47.788;11.858;2022-12-29T09:45:18;3.10;99.90
26990;DHT22;14537;47.788;11.858;2022-12-29T09:47:46;3.20;99.90
26990;DHT22;14537;47.788;11.858;2022-12-29T09:50:30;3.40;99.90
26990;DHT22;14537;47.788;11.858;2022-12-29T09:53:10;3.50;99.90
26990;DHT22;14537;47.788;11.858;2022-12-29T09:55:47;3.60;99.90
26990;DHT22;14537;47.788;11.858;2022-12-29T09:58:40;3.70;99.90
26990;DHT22;14537;47.788;11.858;2022-12-29T10:01:30;3.70;99.90
26990;DHT22;14537;47.788;11.858;2022-12-29T10:03:58;3.80;99.90
26990;DHT22;14537;47.788;11.858;2022-12-29T10:06:42;3.80;99.90
26990;DHT22;14537;47.788;11.858;2022-12-29T10:09:29;4.00;99.90
26990;DHT22;14537;47.788;11.858;2022-12-29T10:25:25;4.60;99.90
26990;DHT22;14537;47.788;11.858;2022-12-29T10:27:53;4.90;99.90
26990;DHT22;14537;47.788;11.858;2022-12-29T10:30:21;5.00;99.90
26990;DHT22;14537;47.788;11.858;2022-12-29T10:32:56;5.00;99.90
26990;DHT22;14537;47.788;11.858;2022-12-29T10:35:25;5.10;99.90
26990;DHT22;14537;47.788;11.858;2022-12-29T10:40:48;5.50;99.90
26990;DHT22;14537;47.788;11.858;2022-12-29T10:43:49;5.80;99.90
26990;DHT22;14537;47.788;11.858;2022-12-29T10:46:20;5.90;99.90
26990;DHT22;14537;47.788;11.858;2022-12-29T10:48:46;6.00;99.90
26990;DHT22;14537;47.788;11.858;2022-12-29T10:51:32;6.30;99.90
26990;DHT22;14537;47.788;11.858;2022-12-29T10:54:36;6.40;99.90
26990;DHT22;14537;47.788;11.858;2022-12-29T10:57:11;6.40;99.90
26990;DHT22;14537;47.788;11.858;2022-12-29T10:59:39;6.50;99.90
26990;DHT22;14537;47.788;11.858;2022-12-29T11:05:00;6.60;99.90
26990;DHT22;14537;47.788;11.858;2022-12-29T11:07:30;6.80;99.90
26990;DHT22;14537;47.788;11.858;2022-12-29T11:10:28;6.90;99.90
26990;DHT22;14537;47.788;11.858;2022-12-29T11:12:59;7.20;99.90
26990;DHT22;14537;47.788;11.858;2022-12-29T11:15:25;7.80;99.90
26990;DHT22;14537;47.788;11.858;2022-12-29T11:18:00;7.70;99.90
26990;DHT22;14537;47.788;11.858;2022-12-29T11:20:35;7.50;99.90
26990;DHT22;14537;47.788;11.858;2022-12-29T11:23:04;7.50;99.90
26990;DHT22;14537;47.788;11.858;2022-12-29T11:25:30;7.40;99.90
26990;DHT22;14537;47.788;11.858;2022-12-29T11:28:21;7.30;99.90
26990;DHT22;14537;47.788;11.858;2022-12-29T11:30:59;7.30;99.90
26990;DHT22;14537;47.788;11.858;2022-12-29T11:33:28;7.30;99.90
26990;DHT22;14537;47.788;11.858;2022-12-29T11:36:06;7.30;99.90
26990;DHT22;14537;47.788;11.858;2022-12-29T11:38:39;7.20;99.90
26990;DHT22;14537;47.788;11.858;2022-12-29T11:41:06;7.20;99.90
26990;DHT22;14537;47.788;11.858;2022-12-29T11:43:41;7.20;99.90
26990;DHT22;14537;47.788;11.858;2022-12-29T11:46:17;7.20;99.90
26990;DHT22;14537;47.788;11.858;2022-12-29T11:48:46;7.10;99.90
26990;DHT22;14537;47.788;11.858;2022-12-29T11:51:13;7.30;99.90
26990;DHT22;14537;47.788;11.858;2022-12-29T11:53:49;7.40;99.90
26990;DHT22;14537;47.788;11.858;2022-12-29T11:56:17;7.40;99.90
26990;DHT22;14537;47.788;11.858;2022-12-29T11:58:45;7.40;99.90
26990;DHT22;14537;47.788;11.858;2022-12-29T12:01:32;7.50;99.90
26990;DHT22;14537;47.788;11.858;2022-12-29T12:04:03;7.50;99.90
26990;DHT22;14537;47.788;11.858;2022-12-29T12:06:33;7.40;99.90
26990;DHT22;14537;47.788;11.858;2022-12-29T12:09:04;7.30;99.90
26990;DHT22;14537;47.788;11.858;2022-12-29T12:11:34;7.20;99.90
26990;DHT22;14537;47.788;11.858;2022-12-29T12:14:11;7.10;99.90
26990;DHT22;14537;47.788;11.858;2022-12-29T12:16:54;7.10;99.90
26990;DHT22;14537;47.788;11.858;2022-12-29T12:22:19;7.00;99.90
26990;DHT22;14537;47.788;11.858;2022-12-29T12:24:53;7.00;99.90
26990;DHT22;14537;47.788;11.858;2022-12-29T12:27:38;6.90;99.90
26990;DHT22;14537;47.788;11.858;2022-12-29T12:30:19;6.90;99.90
26990;DHT22;14537;47.788;11.858;2022-12-29T12:35:35;6.90;99.90
26990;DHT22;14537;47.788;11.858;2022-12-29T12:43:44;6.90;99.90
26990;DHT22;14537;47.788;11.858;2022-12-29T12:46:45;7.00;99.90
26990;DHT22;14537;47.788;11.858;2022-12-29T12:49:19;7.10;99.90
26990;DHT22;14537;47.788;11.858;2022-12-29T12:57:34;7.00;99.90
26990;DHT22;14537;47.788;11.858;2022-12-29T13:00:09;7.00;99.90
26990;DHT22;14537;47.788;11.858;2022-12-29T13:08:12;7.10;99.90
26990;DHT22;14537;47.788;11.858;2022-12-29T13:10:53;7.10;99.90
26990;DHT22;14537;47.788;11.858;2022-12-29T13:13:31;7.30;99.90
26990;DHT22;14537;47.788;11.858;2022-12-29T13:16:20;7.30;99.90
26990;DHT22;14537;47.788;11.858;2022-12-29T13:19:00;7.30;99.90
26990;DHT22;14537;47.788;11.858;2022-12-29T13:27:31;7.30;99.90
26990;DHT22;14537;47.788;11.858;2022-12-29T13:32:37;7.30;99.90
26990;DHT22;14537;47.788;11.858;2022-12-29T13:35:23;7.20;99.90
26990;DHT22;14537;47.788;11.858;2022-12-29T13:40:56;7.10;99.90
26990;DHT22;14537;47.788;11.858;2022-12-29T13:43:25;7.10;99.90
26990;DHT22;14537;47.788;11.858;2022-12-29T13:46:00;7.10;99.90
26990;DHT22;14537;47.788;11.858;2022-12-29T13:48:47;7.00;99.90
26990;DHT22;14537;47.788;11.858;2022-12-29T13:51:14;7.00;99.90
26990;DHT22;14537;47.788;11.858;2022-12-29T13:54:05;7.00;99.90
26990;DHT22;14537;47.788;11.858;2022-12-29T13:56:45;7.00;99.90
26990;DHT22;14537;47.788;11.858;2022-12-29T14:01:53;6.80;99.90
26990;DHT22;14537;47.788;11.858;2022-12-29T14:04:26;6.80;99.90
26990;DHT22;14537;47.788;11.858;2022-12-29T14:07:11;6.60;99.90
26990;DHT22;14537;47.788;11.858;2022-12-29T14:09:40;6.50;99.90
26990;DHT22;14537;47.788;11.858;2022-12-29T14:12:40;6.50;99.90
26990;DHT22;14537;47.788;11.858;2022-12-29T14:17:35;6.30;99.90
26990;DHT22;14537;47.788;11.858;2022-12-29T14:20:01;6.20;99.90
26990;DHT22;14537;47.788;11.858;2022-12-29T14:22:28;6.10;99.90
26990;DHT22;14537;47.788;11.858;2022-12-29T14:24:54;6.10;99.90
26990;DHT22;14537;47.788;11.858;2022-12-29T14:29:47;5.80;99.90
26990;DHT22;14537;47.788;11.858;2022-12-29T14:35:01;5.80;99.90
26990;DHT22;14537;47.788;11.858;2022-12-29T14:37:46;5.70;99.90
26990;DHT22;14537;47.788;11.858;2022-12-29T14:40:18;5.60;99.90
26990;DHT22;14537;47.788;11.858;2022-12-29T14:42:46;5.50;99.90
26990;DHT22;14537;47.788;11.858;2022-12-29T14:47:47;5.40;99.90
26990;DHT22;14537;47.788;11.858;2022-12-29T14:52:48;5.30;99.90
26990;DHT22;14537;47.788;11.858;2022-12-29T14:57:51;5.10;99.90
26990;DHT22;14537;47.788;11.858;2022-12-29T15:03:36;5.00;99.90
26990;DHT22;14537;47.788;11.858;2022-12-29T15:08:07;5.00;99.90
26990;DHT22;14537;47.788;11.858;2022-12-29T15:10:49;5.00;99.90
26990;DHT22;14537;47.788;11.858;2022-12-29T15:13:22;5.00;99.90
26990;DHT22;14537;47.788;11.858;2022-12-29T15:15:48;4.80;99.90
26990;DHT22;14537;47.788;11.858;2022-12-29T15:18:20;4.80;99.90
26990;DHT22;14537;47.788;11.858;2022-12-29T15:20:51;4.70;99.90
26990;DHT22;14537;47.788;11.858;2022-12-29T15:23:18;4.60;99.90
26990;DHT22;14537;47.788;11.858;2022-12-29T15:25:55;4.70;99.90
26990;DHT22;14537;47.788;11.858;2022-12-29T15:28:21;4.80;99.90
26990;DHT22;14537;47.788;11.858;2022-12-29T15:30:55;4.80;99.90
26990;DHT22;14537;47.788;11.858;2022-12-29T15:33:23;4.70;99.90
26990;DHT22;14537;47.788;11.858;2022-12-29T15:35:53;4.60;99.90
26990;DHT22;14537;47.788;11.858;2022-12-29T15:38:25;4.60;99.90
26990;DHT22;14537;47.788;11.858;2022-12-29T15:40:58;4.50;99.90
26990;DHT22;14537;47.788;11.858;2022-12-29T15:46:23;4.40;99.90
26990;DHT22;14537;47.788;11.858;2022-12-29T15:48:49;4.30;99.90
26990;DHT22;14537;47.788;11.858;2022-12-29T15:51:30;4.20;99.90
26990;DHT22;14537;47.788;11.858;2022-12-29T15:53:57;4.20;99.90
26990;DHT22;14537;47.788;11.858;2022-12-29T15:56:23;4.20;99.90
26990;DHT22;14537;47.788;11.858;2022-12-29T15:58:51;4.10;99.90
26990;DHT22;14537;47.788;11.858;2022-12-29T16:01:37;4.00;99.90
26990;DHT22;14537;47.788;11.858;2022-12-29T16:04:08;4.00;99.90
26990;DHT22;14537;47.788;11.858;2022-12-29T16:06:39;3.90;99.90
26990;DHT22;14537;47.788;11.858;2022-12-29T16:09:17;3.90;99.90
26990;DHT22;14537;47.788;11.858;2022-12-29T16:11:58;3.80;99.90
26990;DHT22;14537;47.788;11.858;2022-12-29T16:14:33;3.80;99.90
26990;DHT22;14537;47.788;11.858;2022-12-29T16:17:03;3.80;99.90
26990;DHT22;14537;47.788;11.858;2022-12-29T16:19:33;3.70;99.90
26990;DHT22;14537;47.788;11.858;2022-12-29T16:22:01;3.70;99.90
26990;DHT22;14537;47.788;11.858;2022-12-29T16:24:31;3.70;99.90
26990;DHT22;14537;47.788;11.858;2022-12-29T16:29:23;3.60;99.90
26990;DHT22;14537;47.788;11.858;2022-12-29T16:34:31;3.50;99.90
26990;DHT22;14537;47.788;11.858;2022-12-29T16:37:02;3.50;99.90
26990;DHT22;14537;47.788;11.858;2022-12-29T16:39:36;3.50;99.90
26990;DHT22;14537;47.788;11.858;2022-12-29T16:48:10;3.10;99.90
26990;DHT22;14537;47.788;11.858;2022-12-29T16:50:38;3.20;99.90
26990;DHT22;14537;47.788;11.858;2022-12-29T16:53:05;3.20;99.90
26990;DHT22;14537;47.788;11.858;2022-12-29T16:55:33;3.00;99.90
26990;DHT22;14537;47.788;11.858;2022-12-29T16:57:59;3.10;99.90
26990;DHT22;14537;47.788;11.858;2022-12-29T17:00:28;3.00;99.90
26990;DHT22;14537;47.788;11.858;2022-12-29T17:02:57;3.10;99.90
26990;DHT22;14537;47.788;11.858;2022-12-29T17:05:23;3.00;99.90
26990;DHT22;14537;47.788;11.858;2022-12-29T17:07:49;3.00;99.90
26990;DHT22;14537;47.788;11.858;2022-12-29T17:10:16;3.10;99.90
26990;DHT22;14537;47.788;11.858;2022-12-29T17:12:43;3.10;99.90
26990;DHT22;14537;47.788;11.858;2022-12-29T17:15:25;3.10;99.90
26990;DHT22;14537;47.788;11.858;2022-12-29T17:17:53;3.10;99.90
26990;DHT22;14537;47.788;11.858;2022-12-29T17:20:26;3.20;99.90
26990;DHT22;14537;47.788;11.858;2022-12-29T17:22:52;3.20;99.90
26990;DHT22;14537;47.788;11.858;2022-12-29T17:27:57;3.10;99.90
26990;DHT22;14537;47.788;11.858;2022-12-29T17:30:24;3.10;99.90
26990;DHT22;14537;47.788;11.858;2022-12-29T17:32:52;3.10;99.90
26990;DHT22;14537;47.788;11.858;2022-12-29T17:35:19;3.10;99.90
26990;DHT22;14537;47.788;11.858;2022-12-29T17:37:46;3.00;99.90
26990;DHT22;14537;47.788;11.858;2022-12-29T17:40:32;3.00;99.90
26990;DHT22;14537;47.788;11.858;2022-12-29T17:42:58;3.00;99.90
26990;DHT22;14537;47.788;11.858;2022-12-29T17:45:29;2.90;99.90
26990;DHT22;14537;47.788;11.858;2022-12-29T17:47:56;2.80;99.90
26990;DHT22;14537;47.788;11.858;2022-12-29T17:50:25;2.80;99.90
26990;DHT22;14537;47.788;11.858;2022-12-29T17:53:02;2.80;99.90
26990;DHT22;14537;47.788;11.858;2022-12-29T17:55:28;2.70;99.90
26990;DHT22;14537;47.788;11.858;2022-12-29T17:57:54;2.80;99.90
26990;DHT22;14537;47.788;11.858;2022-12-29T18:00:23;2.70;99.90